sensor_id;sensor_type;location;lat;lon;timestamp;P1;durP1;ratioP1;P2;durP2;ratioP2
11298;SDS011;5705;49.006;12.100;2022-08-19T00:00:25;12.87;;;11.77;;
11298;SDS011;5705;49.006;12.100;2022-08-19T00:02:53;11.00;;;10.13;;
11298;SDS011;5705;49.006;12.100;2022-08-19T00:05:21;11.10;;;10.20;;
11298;SDS011;5705;49.006;12.100;2022-08-19T00:07:49;13.13;;;12.03;;
11298;SDS011;5705;49.006;12.100;2022-08-19T00:10:18;14.23;;;12.97;;
11298;SDS011;5705;49.006;12.100;2022-08-19T00:12:46;13.37;;;12.27;;
11298;SDS011;5705;49.006;12.100;2022-08-19T00:15:16;14.43;;;13.13;;
11298;SDS011;5705;49.006;12.100;2022-08-19T00:17:46;14.87;;;13.57;;
11298;SDS011;5705;49.006;12.100;2022-08-19T00:20:14;14.23;;;13.07;;
11298;SDS011;5705;49.006;12.100;2022-08-19T00:22:45;13.93;;;12.73;;
11298;SDS011;5705;49.006;12.100;2022-08-19T00:25:13;14.73;;;13.43;;
11298;SDS011;5705;49.006;12.100;2022-08-19T00:27:41;14.13;;;12.83;;
11298;SDS011;5705;49.006;12.100;2022-08-19T00:30:09;14.10;;;12.73;;
11298;SDS011;5705;49.006;12.100;2022-08-19T00:32:39;13.70;;;12.53;;
11298;SDS011;5705;49.006;12.100;2022-08-19T00:35:08;16.40;;;15.00;;
11298;SDS011;5705;49.006;12.100;2022-08-19T00:37:37;14.90;;;13.60;;
11298;SDS011;5705;49.006;12.100;2022-08-19T00:40:10;13.67;;;12.47;;
11298;SDS011;5705;49.006;12.100;2022-08-19T00:42:38;13.80;;;12.70;;
11298;SDS011;5705;49.006;12.100;2022-08-19T00:45:09;13.07;;;12.00;;
11298;SDS011;5705;49.006;12.100;2022-08-19T00:47:39;13.03;;;12.00;;
11298;SDS011;5705;49.006;12.100;2022-08-19T00:50:08;15.17;;;13.87;;
11298;SDS011;5705;49.006;12.100;2022-08-19T00:52:37;13.93;;;12.70;;
11298;SDS011;5705;49.006;12.100;2022-08-19T00:55:07;13.17;;;12.13;;
11298;SDS011;5705;49.006;12.100;2022-08-19T00:57:37;14.03;;;12.83;;
11298;SDS011;5705;49.006;12.100;2022-08-19T01:00:08;13.90;;;12.60;;
11298;SDS011;5705;49.006;12.100;2022-08-19T01:02:40;13.47;;;12.37;;
11298;SDS011;5705;49.006;12.100;2022-08-19T01:05:09;14.67;;;13.37;;
11298;SDS011;5705;49.006;12.100;2022-08-19T01:07:39;13.87;;;12.70;;
11298;SDS011;5705;49.006;12.100;2022-08-19T01:10:09;13.37;;;12.27;;
11298;SDS011;5705;49.006;12.100;2022-08-19T01:12:39;13.80;;;12.63;;
11298;SDS011;5705;49.006;12.100;2022-08-19T01:15:08;14.13;;;12.93;;
11298;SDS011;5705;49.006;12.100;2022-08-19T01:17:38;13.80;;;12.47;;
11298;SDS011;5705;49.006;12.100;2022-08-19T01:20:09;13.77;;;12.47;;
11298;SDS011;5705;49.006;12.100;2022-08-19T01:22:40;13.40;;;12.27;;
11298;SDS011;5705;49.006;12.100;2022-08-19T01:25:11;12.93;;;11.93;;
11298;SDS011;5705;49.006;12.100;2022-08-19T01:27:41;13.67;;;12.47;;
11298;SDS011;5705;49.006;12.100;2022-08-19T01:30:11;15.10;;;13.87;;
11298;SDS011;5705;49.006;12.100;2022-08-19T01:32:40;14.77;;;13.43;;
11298;SDS011;5705;49.006;12.100;2022-08-19T01:35:10;14.10;;;12.90;;
11298;SDS011;5705;49.006;12.100;2022-08-19T01:37:44;13.63;;;12.53;;
11298;SDS011;5705;49.006;12.100;2022-08-19T01:40:14;14.40;;;13.20;;
11298;SDS011;5705;49.006;12.100;2022-08-19T01:42:42;14.13;;;12.93;;
11298;SDS011;5705;49.006;12.100;2022-08-19T01:45:09;12.97;;;11.90;;
11298;SDS011;5705;49.006;12.100;2022-08-19T01:47:37;14.03;;;12.80;;
11298;SDS011;5705;49.006;12.100;2022-08-19T01:50:06;14.13;;;13.00;;
11298;SDS011;5705;49.006;12.100;2022-08-19T01:52:36;15.53;;;14.13;;
11298;SDS011;5705;49.006;12.100;2022-08-19T01:55:06;15.17;;;13.87;;
11298;SDS011;5705;49.006;12.100;2022-08-19T01:57:36;14.23;;;13.13;;
11298;SDS011;5705;49.006;12.100;2022-08-19T02:00:06;12.60;;;11.50;;
11298;SDS011;5705;49.006;12.100;2022-08-19T02:02:36;14.60;;;13.33;;
11298;SDS011;5705;49.006;12.100;2022-08-19T02:05:04;14.50;;;13.30;;
11298;SDS011;5705;49.006;12.100;2022-08-19T02:07:35;14.33;;;13.23;;
11298;SDS011;5705;49.006;12.100;2022-08-19T02:10:04;15.73;;;14.43;;
11298;SDS011;5705;49.006;12.100;2022-08-19T02:12:37;15.53;;;14.23;;
11298;SDS011;5705;49.006;12.100;2022-08-19T02:15:05;16.03;;;14.53;;
11298;SDS011;5705;49.006;12.100;2022-08-19T02:17:33;14.83;;;13.63;;
11298;SDS011;5705;49.006;12.100;2022-08-19T02:20:02;16.07;;;14.67;;
11298;SDS011;5705;49.006;12.100;2022-08-19T02:22:32;15.93;;;14.40;;
11298;SDS011;5705;49.006;12.100;2022-08-19T02:25:00;15.40;;;14.10;;
11298;SDS011;5705;49.006;12.100;2022-08-19T02:27:30;15.33;;;14.13;;
11298;SDS011;5705;49.006;12.100;2022-08-19T02:29:58;16.10;;;14.80;;
11298;SDS011;5705;49.006;12.100;2022-08-19T02:32:26;15.57;;;14.27;;
11298;SDS011;5705;49.006;12.100;2022-08-19T02:34:57;16.77;;;15.17;;
11298;SDS011;5705;49.006;12.100;2022-08-19T02:37:25;15.70;;;14.20;;
11298;SDS011;5705;49.006;12.100;2022-08-19T02:40:10;15.63;;;14.33;;
11298;SDS011;5705;49.006;12.100;2022-08-19T02:42:39;16.00;;;14.63;;
11298;SDS011;5705;49.006;12.100;2022-08-19T02:45:09;16.37;;;14.93;;
11298;SDS011;5705;49.006;12.100;2022-08-19T02:47:37;15.77;;;14.37;;
11298;SDS011;5705;49.006;12.100;2022-08-19T02:50:05;16.83;;;15.13;;
11298;SDS011;5705;49.006;12.100;2022-08-19T02:52:33;16.33;;;14.93;;
11298;SDS011;5705;49.006;12.100;2022-08-19T02:55:01;15.03;;;13.67;;
11298;SDS011;5705;49.006;12.100;2022-08-19T02:57:29;15.20;;;14.00;;
11298;SDS011;5705;49.006;12.100;2022-08-19T02:59:59;15.07;;;13.73;;
11298;SDS011;5705;49.006;12.100;2022-08-19T03:02:28;15.03;;;13.80;;
11298;SDS011;5705;49.006;12.100;2022-08-19T03:04:56;13.87;;;12.67;;
11298;SDS011;5705;49.006;12.100;2022-08-19T03:07:24;16.40;;;14.93;;
11298;SDS011;5705;49.006;12.100;2022-08-19T03:09:55;14.13;;;12.87;;
11298;SDS011;5705;49.006;12.100;2022-08-19T03:12:25;14.30;;;13.10;;
11298;SDS011;5705;49.006;12.100;2022-08-19T03:14:53;13.63;;;12.43;;
11298;SDS011;5705;49.006;12.100;2022-08-19T03:17:22;13.60;;;12.50;;
11298;SDS011;5705;49.006;12.100;2022-08-19T03:19:50;12.53;;;11.43;;
11298;SDS011;5705;49.006;12.100;2022-08-19T03:22:17;12.23;;;11.33;;
11298;SDS011;5705;49.006;12.100;2022-08-19T03:24:45;14.13;;;13.03;;
11298;SDS011;5705;49.006;12.100;2022-08-19T03:27:13;13.90;;;12.80;;
11298;SDS011;5705;49.006;12.100;2022-08-19T03:29:41;13.40;;;12.30;;
11298;SDS011;5705;49.006;12.100;2022-08-19T03:32:09;13.70;;;12.60;;
11298;SDS011;5705;49.006;12.100;2022-08-19T03:34:58;12.90;;;11.70;;
11298;SDS011;5705;49.006;12.100;2022-08-19T03:37:26;12.43;;;11.33;;
11298;SDS011;5705;49.006;12.100;2022-08-19T03:39:54;12.37;;;11.27;;
11298;SDS011;5705;49.006;12.100;2022-08-19T03:42:22;12.20;;;11.20;;
11298;SDS011;5705;49.006;12.100;2022-08-19T03:45:10;11.67;;;10.70;;
11298;SDS011;5705;49.006;12.100;2022-08-19T03:47:38;13.17;;;12.07;;
11298;SDS011;5705;49.006;12.100;2022-08-19T03:50:07;12.90;;;11.87;;
11298;SDS011;5705;49.006;12.100;2022-08-19T03:52:35;12.20;;;11.27;;
11298;SDS011;5705;49.006;12.100;2022-08-19T03:55:04;13.30;;;12.20;;
11298;SDS011;5705;49.006;12.100;2022-08-19T03:57:32;12.27;;;11.27;;
11298;SDS011;5705;49.006;12.100;2022-08-19T04:00:00;12.27;;;11.27;;
11298;SDS011;5705;49.006;12.100;2022-08-19T04:02:39;12.93;;;11.80;;
11298;SDS011;5705;49.006;12.100;2022-08-19T04:05:08;13.20;;;12.00;;
11298;SDS011;5705;49.006;12.100;2022-08-19T04:07:36;13.57;;;12.47;;
11298;SDS011;5705;49.006;12.100;2022-08-19T04:10:04;13.00;;;11.80;;
11298;SDS011;5705;49.006;12.100;2022-08-19T04:12:32;12.13;;;11.10;;
11298;SDS011;5705;49.006;12.100;2022-08-19T04:15:00;13.97;;;12.80;;
11298;SDS011;5705;49.006;12.100;2022-08-19T04:17:28;12.63;;;11.63;;
11298;SDS011;5705;49.006;12.100;2022-08-19T04:19:56;12.83;;;11.83;;
11298;SDS011;5705;49.006;12.100;2022-08-19T04:22:25;11.90;;;11.00;;
11298;SDS011;5705;49.006;12.100;2022-08-19T04:24:52;12.00;;;11.00;;
11298;SDS011;5705;49.006;12.100;2022-08-19T04:27:20;12.20;;;11.30;;
11298;SDS011;5705;49.006;12.100;2022-08-19T04:29:48;13.37;;;12.17;;
11298;SDS011;5705;49.006;12.100;2022-08-19T04:32:16;12.17;;;11.17;;
11298;SDS011;5705;49.006;12.100;2022-08-19T04:34:43;12.03;;;11.10;;
11298;SDS011;5705;49.006;12.100;2022-08-19T04:37:30;12.33;;;11.33;;
11298;SDS011;5705;49.006;12.100;2022-08-19T04:40:00;12.67;;;11.57;;
11298;SDS011;5705;49.006;12.100;2022-08-19T04:42:47;12.00;;;11.03;;
11298;SDS011;5705;49.006;12.100;2022-08-19T04:45:14;12.00;;;11.10;;
11298;SDS011;5705;49.006;12.100;2022-08-19T04:47:43;11.90;;;11.00;;
11298;SDS011;5705;49.006;12.100;2022-08-19T04:50:12;12.97;;;11.97;;
11298;SDS011;5705;49.006;12.100;2022-08-19T04:52:42;10.90;;;10.07;;
11298;SDS011;5705;49.006;12.100;2022-08-19T04:55:09;11.17;;;10.27;;
11298;SDS011;5705;49.006;12.100;2022-08-19T04:57:37;13.17;;;12.07;;
11298;SDS011;5705;49.006;12.100;2022-08-19T05:00:07;12.70;;;11.70;;
11298;SDS011;5705;49.006;12.100;2022-08-19T05:02:37;12.27;;;11.33;;
11298;SDS011;5705;49.006;12.100;2022-08-19T05:05:05;11.03;;;10.23;;
11298;SDS011;5705;49.006;12.100;2022-08-19T05:07:33;13.83;;;12.60;;
11298;SDS011;5705;49.006;12.100;2022-08-19T05:10:02;12.03;;;11.10;;
11298;SDS011;5705;49.006;12.100;2022-08-19T05:12:30;12.33;;;11.40;;
11298;SDS011;5705;49.006;12.100;2022-08-19T05:14:58;13.53;;;12.43;;
11298;SDS011;5705;49.006;12.100;2022-08-19T05:17:27;12.63;;;11.63;;
11298;SDS011;5705;49.006;12.100;2022-08-19T05:20:00;13.43;;;12.33;;
11298;SDS011;5705;49.006;12.100;2022-08-19T05:22:46;13.87;;;12.60;;
11298;SDS011;5705;49.006;12.100;2022-08-19T05:25:17;13.33;;;12.23;;
11298;SDS011;5705;49.006;12.100;2022-08-19T05:27:48;12.70;;;11.70;;
11298;SDS011;5705;49.006;12.100;2022-08-19T05:30:16;13.03;;;11.93;;
11298;SDS011;5705;49.006;12.100;2022-08-19T05:32:59;13.50;;;12.30;;
11298;SDS011;5705;49.006;12.100;2022-08-19T05:35:26;12.27;;;11.17;;
11298;SDS011;5705;49.006;12.100;2022-08-19T05:37:54;12.67;;;11.57;;
11298;SDS011;5705;49.006;12.100;2022-08-19T05:40:25;11.87;;;10.77;;
11298;SDS011;5705;49.006;12.100;2022-08-19T05:42:53;11.07;;;10.07;;
11298;SDS011;5705;49.006;12.100;2022-08-19T05:45:21;10.83;;;9.93;;
11298;SDS011;5705;49.006;12.100;2022-08-19T05:47:48;11.40;;;10.50;;
11298;SDS011;5705;49.006;12.100;2022-08-19T05:50:16;11.27;;;10.27;;
11298;SDS011;5705;49.006;12.100;2022-08-19T05:52:44;11.87;;;10.97;;
11298;SDS011;5705;49.006;12.100;2022-08-19T05:55:15;11.20;;;10.30;;
11298;SDS011;5705;49.006;12.100;2022-08-19T05:57:44;11.57;;;10.57;;
11298;SDS011;5705;49.006;12.100;2022-08-19T06:00:12;11.17;;;10.13;;
11298;SDS011;5705;49.006;12.100;2022-08-19T06:02:40;11.80;;;10.90;;
11298;SDS011;5705;49.006;12.100;2022-08-19T06:05:09;11.47;;;10.57;;
11298;SDS011;5705;49.006;12.100;2022-08-19T06:07:37;11.07;;;10.17;;
11298;SDS011;5705;49.006;12.100;2022-08-19T06:10:07;10.93;;;10.13;;
11298;SDS011;5705;49.006;12.100;2022-08-19T06:12:36;12.20;;;11.20;;
11298;SDS011;5705;49.006;12.100;2022-08-19T06:15:07;11.23;;;10.33;;
11298;SDS011;5705;49.006;12.100;2022-08-19T06:17:36;12.43;;;11.43;;
11298;SDS011;5705;49.006;12.100;2022-08-19T06:20:04;13.00;;;11.90;;
11298;SDS011;5705;49.006;12.100;2022-08-19T06:22:36;11.87;;;10.87;;
11298;SDS011;5705;49.006;12.100;2022-08-19T06:25:05;10.87;;;9.97;;
11298;SDS011;5705;49.006;12.100;2022-08-19T06:27:35;11.07;;;10.17;;
11298;SDS011;5705;49.006;12.100;2022-08-19T06:30:15;10.87;;;9.97;;
11298;SDS011;5705;49.006;12.100;2022-08-19T06:32:42;10.50;;;9.60;;
11298;SDS011;5705;49.006;12.100;2022-08-19T06:35:10;11.67;;;10.70;;
11298;SDS011;5705;49.006;12.100;2022-08-19T06:37:40;10.50;;;9.67;;
11298;SDS011;5705;49.006;12.100;2022-08-19T06:40:09;10.53;;;9.73;;
11298;SDS011;5705;49.006;12.100;2022-08-19T06:42:39;12.50;;;11.50;;
11298;SDS011;5705;49.006;12.100;2022-08-19T06:45:20;11.53;;;10.63;;
11298;SDS011;5705;49.006;12.100;2022-08-19T06:47:50;10.30;;;9.50;;
11298;SDS011;5705;49.006;12.100;2022-08-19T06:50:22;10.00;;;9.20;;
11298;SDS011;5705;49.006;12.100;2022-08-19T06:52:50;9.93;;;9.13;;
11298;SDS011;5705;49.006;12.100;2022-08-19T06:55:18;9.70;;;9.00;;
11298;SDS011;5705;49.006;12.100;2022-08-19T06:57:47;9.87;;;9.07;;
11298;SDS011;5705;49.006;12.100;2022-08-19T07:00:20;10.50;;;9.70;;
11298;SDS011;5705;49.006;12.100;2022-08-19T07:02:48;10.57;;;9.77;;
11298;SDS011;5705;49.006;12.100;2022-08-19T07:05:22;7.00;;;6.50;;
11298;SDS011;5705;49.006;12.100;2022-08-19T07:07:50;9.63;;;8.93;;
11298;SDS011;5705;49.006;12.100;2022-08-19T07:10:18;10.53;;;9.73;;
11298;SDS011;5705;49.006;12.100;2022-08-19T07:12:46;12.33;;;11.23;;
11298;SDS011;5705;49.006;12.100;2022-08-19T07:15:16;11.97;;;11.03;;
11298;SDS011;5705;49.006;12.100;2022-08-19T07:17:45;12.30;;;11.30;;
11298;SDS011;5705;49.006;12.100;2022-08-19T07:20:18;12.70;;;11.63;;
11298;SDS011;5705;49.006;12.100;2022-08-19T07:22:46;13.43;;;12.33;;
11298;SDS011;5705;49.006;12.100;2022-08-19T07:25:14;13.63;;;12.43;;
11298;SDS011;5705;49.006;12.100;2022-08-19T07:27:44;13.53;;;12.40;;
11298;SDS011;5705;49.006;12.100;2022-08-19T07:30:14;13.57;;;12.47;;
11298;SDS011;5705;49.006;12.100;2022-08-19T07:32:41;13.70;;;12.40;;
11298;SDS011;5705;49.006;12.100;2022-08-19T07:35:10;13.30;;;12.10;;
11298;SDS011;5705;49.006;12.100;2022-08-19T07:37:38;12.97;;;11.87;;
11298;SDS011;5705;49.006;12.100;2022-08-19T07:40:10;12.00;;;10.90;;
11298;SDS011;5705;49.006;12.100;2022-08-19T07:42:39;13.07;;;11.97;;
11298;SDS011;5705;49.006;12.100;2022-08-19T07:45:06;13.57;;;12.27;;
11298;SDS011;5705;49.006;12.100;2022-08-19T07:47:35;13.03;;;11.83;;
11298;SDS011;5705;49.006;12.100;2022-08-19T07:50:17;12.23;;;11.23;;
11298;SDS011;5705;49.006;12.100;2022-08-19T07:52:46;12.63;;;11.63;;
11298;SDS011;5705;49.006;12.100;2022-08-19T07:55:16;13.17;;;11.97;;
11298;SDS011;5705;49.006;12.100;2022-08-19T07:58:08;12.33;;;11.33;;
11298;SDS011;5705;49.006;12.100;2022-08-19T08:00:35;12.40;;;11.30;;
11298;SDS011;5705;49.006;12.100;2022-08-19T08:03:03;10.97;;;10.07;;
11298;SDS011;5705;49.006;12.100;2022-08-19T08:05:32;11.57;;;10.57;;
11298;SDS011;5705;49.006;12.100;2022-08-19T08:08:18;11.37;;;10.30;;
11298;SDS011;5705;49.006;12.100;2022-08-19T08:11:13;7.47;;;6.90;;
11298;SDS011;5705;49.006;12.100;2022-08-19T08:13:42;9.33;;;8.60;;
11298;SDS011;5705;49.006;12.100;2022-08-19T08:16:10;10.17;;;9.37;;
11298;SDS011;5705;49.006;12.100;2022-08-19T08:18:39;7.20;;;6.70;;
11298;SDS011;5705;49.006;12.100;2022-08-19T08:21:09;8.67;;;7.87;;
11298;SDS011;5705;49.006;12.100;2022-08-19T08:23:37;8.40;;;7.80;;
11298;SDS011;5705;49.006;12.100;2022-08-19T08:26:06;10.23;;;9.43;;
11298;SDS011;5705;49.006;12.100;2022-08-19T08:28:34;9.77;;;8.97;;
11298;SDS011;5705;49.006;12.100;2022-08-19T08:31:03;10.27;;;9.47;;
11298;SDS011;5705;49.006;12.100;2022-08-19T08:33:35;9.33;;;8.63;;
11298;SDS011;5705;49.006;12.100;2022-08-19T08:36:03;6.80;;;6.30;;
11298;SDS011;5705;49.006;12.100;2022-08-19T08:38:33;7.97;;;7.27;;
11298;SDS011;5705;49.006;12.100;2022-08-19T08:41:07;6.03;;;5.63;;
11298;SDS011;5705;49.006;12.100;2022-08-19T08:43:39;7.07;;;6.53;;
11298;SDS011;5705;49.006;12.100;2022-08-19T08:46:11;7.33;;;6.83;;
11298;SDS011;5705;49.006;12.100;2022-08-19T08:48:57;5.93;;;5.53;;
11298;SDS011;5705;49.006;12.100;2022-08-19T08:51:29;9.20;;;8.50;;
11298;SDS011;5705;49.006;12.100;2022-08-19T08:54:02;8.10;;;7.50;;
11298;SDS011;5705;49.006;12.100;2022-08-19T08:56:32;6.90;;;6.40;;
11298;SDS011;5705;49.006;12.100;2022-08-19T08:59:01;8.63;;;8.00;;
11298;SDS011;5705;49.006;12.100;2022-08-19T09:01:33;8.87;;;8.17;;
11298;SDS011;5705;49.006;12.100;2022-08-19T09:04:02;8.10;;;7.37;;
11298;SDS011;5705;49.006;12.100;2022-08-19T09:06:32;5.53;;;5.23;;
11298;SDS011;5705;49.006;12.100;2022-08-19T09:09:09;5.90;;;5.50;;
11298;SDS011;5705;49.006;12.100;2022-08-19T09:11:45;6.17;;;5.73;;
11298;SDS011;5705;49.006;12.100;2022-08-19T09:14:20;9.23;;;8.53;;
11298;SDS011;5705;49.006;12.100;2022-08-19T09:17:15;8.57;;;7.87;;
11298;SDS011;5705;49.006;12.100;2022-08-19T09:19:47;6.57;;;6.07;;
11298;SDS011;5705;49.006;12.100;2022-08-19T09:22:16;7.80;;;7.20;;
11298;SDS011;5705;49.006;12.100;2022-08-19T09:24:52;7.27;;;6.67;;
11298;SDS011;5705;49.006;12.100;2022-08-19T09:27:21;9.73;;;9.03;;
11298;SDS011;5705;49.006;12.100;2022-08-19T09:30:08;6.83;;;6.33;;
11298;SDS011;5705;49.006;12.100;2022-08-19T09:32:38;6.77;;;6.30;;
11298;SDS011;5705;49.006;12.100;2022-08-19T09:35:08;7.13;;;6.53;;
11298;SDS011;5705;49.006;12.100;2022-08-19T09:37:36;8.77;;;8.07;;
11298;SDS011;5705;49.006;12.100;2022-08-19T09:40:06;9.00;;;8.30;;
11298;SDS011;5705;49.006;12.100;2022-08-19T09:42:34;9.63;;;8.83;;
11298;SDS011;5705;49.006;12.100;2022-08-19T09:45:02;11.63;;;10.73;;
11298;SDS011;5705;49.006;12.100;2022-08-19T09:47:35;11.40;;;10.50;;
11298;SDS011;5705;49.006;12.100;2022-08-19T09:50:04;10.23;;;9.43;;
11298;SDS011;5705;49.006;12.100;2022-08-19T09:52:33;8.23;;;7.63;;
11298;SDS011;5705;49.006;12.100;2022-08-19T09:55:03;8.37;;;7.77;;
11298;SDS011;5705;49.006;12.100;2022-08-19T09:57:33;6.63;;;6.10;;
11298;SDS011;5705;49.006;12.100;2022-08-19T10:00:02;8.13;;;7.40;;
11298;SDS011;5705;49.006;12.100;2022-08-19T10:02:30;7.97;;;7.37;;
11298;SDS011;5705;49.006;12.100;2022-08-19T10:04:58;6.80;;;6.30;;
11298;SDS011;5705;49.006;12.100;2022-08-19T10:07:52;7.60;;;7.00;;
11298;SDS011;5705;49.006;12.100;2022-08-19T10:10:22;8.40;;;7.70;;
11298;SDS011;5705;49.006;12.100;2022-08-19T10:12:51;10.30;;;9.30;;
11298;SDS011;5705;49.006;12.100;2022-08-19T10:15:20;7.20;;;6.67;;
11298;SDS011;5705;49.006;12.100;2022-08-19T10:17:54;8.63;;;8.03;;
11298;SDS011;5705;49.006;12.100;2022-08-19T10:20:24;8.10;;;7.50;;
11298;SDS011;5705;49.006;12.100;2022-08-19T10:22:51;8.87;;;8.17;;
11298;SDS011;5705;49.006;12.100;2022-08-19T10:25:19;6.47;;;5.93;;
11298;SDS011;5705;49.006;12.100;2022-08-19T10:27:47;5.87;;;5.37;;
11298;SDS011;5705;49.006;12.100;2022-08-19T10:30:16;5.90;;;5.50;;
11298;SDS011;5705;49.006;12.100;2022-08-19T10:32:44;6.93;;;6.33;;
11298;SDS011;5705;49.006;12.100;2022-08-19T10:35:12;5.23;;;4.93;;
11298;SDS011;5705;49.006;12.100;2022-08-19T10:37:41;6.00;;;5.60;;
11298;SDS011;5705;49.006;12.100;2022-08-19T10:40:13;6.07;;;5.57;;
11298;SDS011;5705;49.006;12.100;2022-08-19T10:42:40;5.63;;;5.23;;
11298;SDS011;5705;49.006;12.100;2022-08-19T10:45:09;7.07;;;6.47;;
11298;SDS011;5705;49.006;12.100;2022-08-19T10:47:38;6.53;;;5.97;;
11298;SDS011;5705;49.006;12.100;2022-08-19T10:50:06;6.73;;;6.27;;
11298;SDS011;5705;49.006;12.100;2022-08-19T10:52:54;7.27;;;6.67;;
11298;SDS011;5705;49.006;12.100;2022-08-19T10:55:23;6.80;;;6.30;;
11298;SDS011;5705;49.006;12.100;2022-08-19T10:58:12;7.17;;;6.67;;
11298;SDS011;5705;49.006;12.100;2022-08-19T11:00:41;7.53;;;7.03;;
11298;SDS011;5705;49.006;12.100;2022-08-19T11:03:10;6.97;;;6.30;;
11298;SDS011;5705;49.006;12.100;2022-08-19T11:05:38;7.03;;;6.43;;
11298;SDS011;5705;49.006;12.100;2022-08-19T11:08:07;10.80;;;9.70;;
11298;SDS011;5705;49.006;12.100;2022-08-19T11:10:48;9.60;;;8.70;;
11298;SDS011;5705;49.006;12.100;2022-08-19T11:13:16;9.63;;;8.73;;
11298;SDS011;5705;49.006;12.100;2022-08-19T11:15:44;7.63;;;7.03;;
11298;SDS011;5705;49.006;12.100;2022-08-19T11:18:14;8.37;;;7.57;;
11298;SDS011;5705;49.006;12.100;2022-08-19T11:20:43;9.77;;;9.07;;
11298;SDS011;5705;49.006;12.100;2022-08-19T11:23:10;9.33;;;8.53;;
11298;SDS011;5705;49.006;12.100;2022-08-19T11:25:38;8.63;;;7.93;;
11298;SDS011;5705;49.006;12.100;2022-08-19T11:28:06;8.80;;;8.10;;
11298;SDS011;5705;49.006;12.100;2022-08-19T11:30:33;7.63;;;7.03;;
11298;SDS011;5705;49.006;12.100;2022-08-19T11:33:01;7.50;;;6.90;;
11298;SDS011;5705;49.006;12.100;2022-08-19T11:35:30;7.50;;;6.93;;
11298;SDS011;5705;49.006;12.100;2022-08-19T11:37:59;7.60;;;6.90;;
11298;SDS011;5705;49.006;12.100;2022-08-19T11:40:31;10.07;;;9.17;;
11298;SDS011;5705;49.006;12.100;2022-08-19T11:42:59;10.67;;;9.70;;
11298;SDS011;5705;49.006;12.100;2022-08-19T11:45:27;11.97;;;10.97;;
11298;SDS011;5705;49.006;12.100;2022-08-19T11:47:55;11.30;;;10.30;;
11298;SDS011;5705;49.006;12.100;2022-08-19T11:50:23;15.33;;;13.73;;
11298;SDS011;5705;49.006;12.100;2022-08-19T11:52:54;15.77;;;14.37;;
11298;SDS011;5705;49.006;12.100;2022-08-19T11:55:22;17.20;;;15.60;;
11298;SDS011;5705;49.006;12.100;2022-08-19T11:57:50;17.90;;;16.10;;
11298;SDS011;5705;49.006;12.100;2022-08-19T12:00:18;18.03;;;16.10;;
11298;SDS011;5705;49.006;12.100;2022-08-19T12:02:46;19.33;;;17.50;;
11298;SDS011;5705;49.006;12.100;2022-08-19T12:05:14;20.23;;;18.20;;
11298;SDS011;5705;49.006;12.100;2022-08-19T12:07:42;16.23;;;14.70;;
11298;SDS011;5705;49.006;12.100;2022-08-19T12:10:11;17.23;;;15.63;;
11298;SDS011;5705;49.006;12.100;2022-08-19T12:12:39;18.37;;;16.57;;
11298;SDS011;5705;49.006;12.100;2022-08-19T12:15:09;17.03;;;15.40;;
11298;SDS011;5705;49.006;12.100;2022-08-19T12:17:38;16.47;;;14.97;;
11298;SDS011;5705;49.006;12.100;2022-08-19T12:20:06;17.67;;;16.07;;
11298;SDS011;5705;49.006;12.100;2022-08-19T12:22:36;14.87;;;13.47;;
11298;SDS011;5705;49.006;12.100;2022-08-19T12:25:05;15.73;;;14.33;;
11298;SDS011;5705;49.006;12.100;2022-08-19T12:27:37;19.90;;;16.70;;
11298;SDS011;5705;49.006;12.100;2022-08-19T12:30:09;17.00;;;15.33;;
11298;SDS011;5705;49.006;12.100;2022-08-19T12:32:39;17.73;;;15.93;;
11298;SDS011;5705;49.006;12.100;2022-08-19T12:35:07;19.73;;;17.63;;
11298;SDS011;5705;49.006;12.100;2022-08-19T12:37:37;17.90;;;16.03;;
11298;SDS011;5705;49.006;12.100;2022-08-19T12:40:08;17.33;;;15.73;;
11298;SDS011;5705;49.006;12.100;2022-08-19T12:42:39;18.80;;;16.90;;
11298;SDS011;5705;49.006;12.100;2022-08-19T12:45:09;16.53;;;15.03;;
11298;SDS011;5705;49.006;12.100;2022-08-19T12:47:37;18.33;;;15.00;;
11298;SDS011;5705;49.006;12.100;2022-08-19T12:50:06;17.47;;;15.87;;
11298;SDS011;5705;49.006;12.100;2022-08-19T12:52:35;17.37;;;15.67;;
11298;SDS011;5705;49.006;12.100;2022-08-19T12:55:04;14.60;;;13.33;;
11298;SDS011;5705;49.006;12.100;2022-08-19T12:57:33;15.77;;;14.47;;
11298;SDS011;5705;49.006;12.100;2022-08-19T13:00:05;17.40;;;15.70;;
11298;SDS011;5705;49.006;12.100;2022-08-19T13:02:36;17.83;;;16.20;;
11298;SDS011;5705;49.006;12.100;2022-08-19T13:05:05;20.33;;;18.27;;
11298;SDS011;5705;49.006;12.100;2022-08-19T13:07:35;15.87;;;14.37;;
11298;SDS011;5705;49.006;12.100;2022-08-19T13:10:04;14.70;;;13.40;;
11298;SDS011;5705;49.006;12.100;2022-08-19T13:12:32;17.00;;;15.20;;
11298;SDS011;5705;49.006;12.100;2022-08-19T13:15:00;16.57;;;15.03;;
11298;SDS011;5705;49.006;12.100;2022-08-19T13:17:29;16.73;;;15.13;;
11298;SDS011;5705;49.006;12.100;2022-08-19T13:19:57;16.90;;;15.20;;
11298;SDS011;5705;49.006;12.100;2022-08-19T13:22:25;16.63;;;14.97;;
11298;SDS011;5705;49.006;12.100;2022-08-19T13:24:53;16.97;;;15.37;;
11298;SDS011;5705;49.006;12.100;2022-08-19T13:27:20;17.43;;;15.77;;
11298;SDS011;5705;49.006;12.100;2022-08-19T13:29:48;16.90;;;15.30;;
11298;SDS011;5705;49.006;12.100;2022-08-19T13:32:35;17.63;;;15.93;;
11298;SDS011;5705;49.006;12.100;2022-08-19T13:35:20;18.63;;;16.90;;
11298;SDS011;5705;49.006;12.100;2022-08-19T13:37:48;18.57;;;16.77;;
11298;SDS011;5705;49.006;12.100;2022-08-19T13:40:17;18.70;;;16.93;;
11298;SDS011;5705;49.006;12.100;2022-08-19T13:42:48;17.63;;;16.03;;
11298;SDS011;5705;49.006;12.100;2022-08-19T13:45:19;16.77;;;15.23;;
11298;SDS011;5705;49.006;12.100;2022-08-19T13:47:49;17.77;;;16.17;;
11298;SDS011;5705;49.006;12.100;2022-08-19T13:50:24;16.33;;;14.93;;
11298;SDS011;5705;49.006;12.100;2022-08-19T13:52:52;15.47;;;14.07;;
11298;SDS011;5705;49.006;12.100;2022-08-19T13:55:22;17.50;;;15.90;;
11298;SDS011;5705;49.006;12.100;2022-08-19T13:57:50;16.20;;;14.77;;
11298;SDS011;5705;49.006;12.100;2022-08-19T14:00:19;15.70;;;14.30;;
11298;SDS011;5705;49.006;12.100;2022-08-19T14:02:50;16.67;;;15.17;;
11298;SDS011;5705;49.006;12.100;2022-08-19T14:05:19;16.10;;;14.70;;
11298;SDS011;5705;49.006;12.100;2022-08-19T14:07:47;15.70;;;14.27;;
11298;SDS011;5705;49.006;12.100;2022-08-19T14:10:15;12.63;;;11.53;;
11298;SDS011;5705;49.006;12.100;2022-08-19T14:12:43;8.13;;;7.33;;
11298;SDS011;5705;49.006;12.100;2022-08-19T14:15:12;8.20;;;7.57;;
11298;SDS011;5705;49.006;12.100;2022-08-19T14:17:41;10.90;;;10.00;;
11298;SDS011;5705;49.006;12.100;2022-08-19T14:20:12;6.23;;;5.83;;
11298;SDS011;5705;49.006;12.100;2022-08-19T14:22:44;10.43;;;9.57;;
11298;SDS011;5705;49.006;12.100;2022-08-19T14:25:14;13.53;;;12.40;;
11298;SDS011;5705;49.006;12.100;2022-08-19T14:27:43;14.63;;;13.33;;
11298;SDS011;5705;49.006;12.100;2022-08-19T14:30:12;12.20;;;11.20;;
11298;SDS011;5705;49.006;12.100;2022-08-19T14:32:41;8.73;;;8.03;;
11298;SDS011;5705;49.006;12.100;2022-08-19T14:35:12;9.20;;;8.50;;
11298;SDS011;5705;49.006;12.100;2022-08-19T14:37:41;5.93;;;5.43;;
11298;SDS011;5705;49.006;12.100;2022-08-19T14:40:21;10.73;;;9.93;;
11298;SDS011;5705;49.006;12.100;2022-08-19T14:42:52;14.07;;;12.87;;
11298;SDS011;5705;49.006;12.100;2022-08-19T14:45:22;9.27;;;8.47;;